Terminal Aerodrome Forecast
Issued by NWS

Home | Current Version | Previous Version | Text Only | Print | Product List | Glossary On
Versions: 1 2 3 4 5 6 7 8 9 10 11 12 13 14 15 16 17
000
FTUS41 KPBZ 310129 AAA
TAFDUJ
TAF AMD
KDUJ 310129Z 3101/3124 00000KT 1SM BR SKC
     FM310900 VRB02KT 1/2SM FG VV002
     FM311300 VRB03KT 2SM BR SCT004
     FM311400 23005KT P6SM SCT040 BKN250=

USA.gov is the U.S. government's official web portal to all federal, state and local government web resources and services.